createdAt,value
2023-08-29T00:00:44.862Z,57.50
2023-08-29T00:03:13.057Z,57.50
2023-08-29T00:05:40.911Z,57.60
2023-08-29T00:08:09.023Z,57.60
2023-08-29T00:10:37.222Z,57.60
2023-08-29T00:13:05.549Z,57.60
2023-08-29T00:15:33.967Z,57.60
2023-08-29T00:18:02.236Z,57.60
2023-08-29T00:20:30.182Z,57.60
2023-08-29T00:22:58.234Z,57.60
2023-08-29T00:25:26.456Z,57.60
2023-08-29T00:27:54.542Z,57.70
2023-08-29T00:30:22.530Z,57.60
2023-08-29T00:32:50.712Z,57.70
2023-08-29T00:35:18.809Z,57.70
2023-08-29T00:37:46.971Z,57.70
2023-08-29T00:40:15.218Z,57.70
2023-08-29T00:42:43.306Z,57.70
2023-08-29T00:45:11.729Z,57.70
2023-08-29T00:47:40.391Z,57.70
2023-08-29T00:50:09.678Z,57.70
2023-08-29T00:52:37.742Z,57.70
2023-08-29T00:55:06.158Z,57.70
2023-08-29T00:57:34.406Z,57.70
2023-08-29T01:00:02.711Z,57.70
2023-08-29T01:02:30.882Z,57.70
2023-08-29T01:04:59.335Z,57.70
2023-08-29T01:07:27.497Z,57.80
2023-08-29T01:09:55.612Z,57.80
2023-08-29T01:12:31.697Z,57.80
2023-08-29T01:15:06.353Z,57.80
2023-08-29T01:17:45.566Z,57.80
2023-08-29T01:20:16.021Z,57.80
2023-08-29T01:23:12.249Z,57.80
2023-08-29T01:25:53.295Z,57.80
2023-08-29T01:28:23.194Z,57.70
2023-08-29T01:30:51.553Z,57.80
2023-08-29T01:33:21.295Z,57.80
2023-08-29T01:35:49.481Z,57.90
2023-08-29T01:38:18.868Z,57.90
2023-08-29T01:40:47.064Z,57.80
2023-08-29T01:43:15.266Z,57.80
2023-08-29T01:45:43.372Z,57.80
2023-08-29T01:48:15.970Z,57.80
2023-08-29T01:50:44.724Z,57.80
2023-08-29T01:53:13.071Z,57.80
2023-08-29T01:55:41.901Z,57.90
2023-08-29T01:58:10.826Z,57.90
2023-08-29T02:00:39.294Z,57.80
2023-08-29T02:03:07.432Z,57.80
2023-08-29T02:05:35.389Z,57.80
2023-08-29T02:08:03.959Z,57.80
2023-08-29T02:10:34.499Z,57.80
2023-08-29T02:13:02.693Z,57.80
2023-08-29T02:15:30.917Z,57.70
2023-08-29T02:18:00.347Z,57.60
2023-08-29T02:20:28.435Z,57.50
2023-08-29T02:22:56.526Z,57.50
2023-08-29T02:25:24.651Z,57.40
2023-08-29T02:27:52.828Z,57.30
2023-08-29T02:30:21.091Z,57.20
2023-08-29T02:32:49.315Z,57.10
2023-08-29T02:35:19.979Z,57.10
2023-08-29T02:37:47.992Z,57.00
2023-08-29T02:40:16.175Z,56.90
2023-08-29T02:42:45.033Z,56.80
2023-08-29T02:45:13.270Z,56.70
2023-08-29T02:47:41.696Z,56.70
2023-08-29T02:50:10.736Z,56.60
2023-08-29T02:52:38.977Z,56.50
2023-08-29T02:55:07.595Z,56.50
2023-08-29T02:57:35.785Z,56.30
2023-08-29T03:00:06.642Z,56.30
2023-08-29T03:02:34.847Z,56.20
2023-08-29T03:05:02.985Z,56.20
2023-08-29T03:07:31.188Z,56.00
2023-08-29T03:10:01.445Z,56.00
2023-08-29T03:12:29.689Z,55.90
2023-08-29T03:14:57.979Z,55.80
2023-08-29T03:17:26.967Z,55.80
2023-08-29T03:19:55.306Z,55.70
2023-08-29T03:22:23.371Z,55.60
2023-08-29T03:24:51.487Z,55.50
2023-08-29T03:27:19.574Z,55.50
2023-08-29T03:29:47.574Z,55.40
2023-08-29T03:32:15.699Z,55.30
2023-08-29T03:34:43.715Z,55.30
2023-08-29T03:37:11.789Z,55.20
2023-08-29T03:39:41.710Z,55.20
2023-08-29T03:42:09.826Z,55.10
2023-08-29T03:44:39.077Z,55.00
2023-08-29T03:47:07.472Z,54.90
2023-08-29T03:49:35.756Z,54.90
2023-08-29T03:52:04.427Z,54.80
2023-08-29T03:54:32.656Z,54.80
2023-08-29T03:57:00.869Z,54.70
2023-08-29T03:59:30.398Z,54.60
2023-08-29T04:01:58.792Z,54.60
2023-08-29T04:04:27.117Z,54.60
2023-08-29T04:06:55.371Z,54.50
2023-08-29T04:09:23.616Z,54.40
2023-08-29T04:11:51.830Z,54.40
2023-08-29T04:14:20.248Z,54.30
2023-08-29T04:16:49.290Z,54.30
2023-08-29T04:19:18.020Z,54.30
2023-08-29T04:21:46.318Z,54.20
2023-08-29T04:24:14.641Z,54.20
2023-08-29T04:26:42.775Z,54.20
2023-08-29T04:29:11.119Z,54.10
2023-08-29T04:31:39.567Z,54.10
2023-08-29T04:34:07.750Z,54.10
2023-08-29T04:36:35.901Z,54.00
2023-08-29T04:39:04.235Z,54.00
2023-08-29T04:41:32.531Z,53.90
2023-08-29T04:44:00.685Z,53.80
2023-08-29T04:46:28.937Z,53.80
2023-08-29T04:48:56.987Z,53.70
2023-08-29T04:51:25.654Z,53.70
2023-08-29T04:53:53.929Z,53.70
2023-08-29T04:56:24.625Z,53.30
2023-08-29T04:58:53.058Z,53.50
2023-08-29T05:01:21.122Z,51.20
2023-08-29T05:03:49.438Z,49.50
2023-08-29T05:06:18.469Z,50.20
2023-08-29T05:08:46.486Z,50.50
2023-08-29T05:11:14.921Z,49.40
2023-08-29T05:13:43.070Z,50.40
2023-08-29T05:16:11.529Z,49.90
2023-08-29T05:18:39.922Z,50.00
2023-08-29T05:21:07.922Z,49.90
2023-08-29T05:23:35.963Z,49.80
2023-08-29T05:26:04.515Z,49.60
2023-08-29T05:28:32.645Z,49.30
2023-08-29T05:31:00.912Z,49.20
2023-08-29T05:33:29.009Z,50.30
2023-08-29T05:35:57.003Z,50.80
2023-08-29T05:38:26.896Z,50.80
2023-08-29T05:40:55.442Z,50.80
2023-08-29T05:43:23.503Z,50.90
2023-08-29T05:45:51.629Z,51.10
2023-08-29T05:48:19.630Z,51.30
2023-08-29T05:50:51.041Z,51.20
2023-08-29T05:53:20.025Z,51.60
2023-08-29T05:55:48.698Z,51.60
2023-08-29T05:58:17.720Z,51.60
2023-08-29T06:00:45.837Z,51.70
2023-08-29T06:03:14.147Z,51.70
2023-08-29T06:05:43.108Z,51.80
2023-08-29T06:08:19.261Z,52.00
2023-08-29T06:10:49.016Z,51.90
2023-08-29T06:13:18.294Z,52.00
2023-08-29T06:15:46.424Z,52.10
2023-08-29T06:18:14.505Z,52.10
2023-08-29T06:20:42.475Z,52.10
2023-08-29T06:23:10.751Z,52.10
2023-08-29T06:25:38.874Z,52.10
2023-08-29T06:28:07.370Z,52.10
2023-08-29T06:30:37.382Z,52.10
2023-08-29T06:33:08.163Z,52.10
2023-08-29T06:35:39.465Z,52.10
2023-08-29T06:38:08.986Z,52.10
2023-08-29T06:40:37.767Z,52.00
2023-08-29T06:43:05.900Z,52.00
2023-08-29T06:45:34.106Z,52.00
2023-08-29T06:48:02.429Z,52.00
2023-08-29T06:50:30.616Z,52.00
2023-08-29T06:52:59.379Z,52.10
2023-08-29T06:55:28.466Z,52.00
2023-08-29T06:57:56.659Z,52.10
2023-08-29T07:00:24.904Z,51.90
2023-08-29T07:02:53.291Z,51.90
2023-08-29T07:05:22.332Z,52.00
2023-08-29T07:07:50.707Z,52.00
2023-08-29T07:10:19.394Z,52.10
2023-08-29T07:12:47.890Z,51.90
2023-08-29T07:15:16.128Z,51.90
2023-08-29T07:17:44.668Z,51.90
2023-08-29T07:20:12.969Z,52.00
2023-08-29T07:22:44.854Z,52.00
2023-08-29T07:25:13.649Z,52.10
2023-08-29T07:27:42.721Z,52.20
2023-08-29T07:30:16.280Z,52.10
2023-08-29T07:32:45.559Z,52.00
2023-08-29T07:35:15.410Z,52.10
2023-08-29T07:37:43.727Z,52.10
2023-08-29T07:40:12.433Z,52.10
2023-08-29T07:42:40.754Z,52.10
2023-08-29T07:45:09.936Z,52.00
2023-08-29T07:47:38.415Z,52.10
2023-08-29T07:50:07.704Z,52.10
2023-08-29T07:52:36.580Z,52.30
2023-08-29T07:55:07.254Z,52.30
2023-08-29T07:57:35.314Z,52.20
2023-08-29T08:00:04.810Z,52.30
2023-08-29T08:02:39.544Z,52.40
2023-08-29T08:05:12.048Z,52.40
2023-08-29T08:07:41.480Z,52.30
2023-08-29T08:10:11.759Z,52.30
2023-08-29T08:12:41.344Z,52.30
2023-08-29T08:15:10.821Z,52.30
2023-08-29T08:17:39.592Z,52.30
2023-08-29T08:20:11.293Z,52.30
2023-08-29T08:22:40.737Z,52.40
2023-08-29T08:25:10.628Z,52.30
2023-08-29T08:27:41.583Z,52.20
2023-08-29T08:30:10.211Z,52.20
2023-08-29T08:32:38.742Z,52.10
2023-08-29T08:35:08.233Z,52.10
2023-08-29T08:37:37.350Z,52.00
2023-08-29T08:40:12.501Z,52.00
2023-08-29T08:42:41.359Z,51.90
2023-08-29T08:45:11.788Z,51.90
2023-08-29T08:47:40.588Z,51.90
2023-08-29T08:50:10.119Z,51.90
2023-08-29T08:52:40.228Z,51.90
2023-08-29T08:55:09.085Z,51.90
2023-08-29T08:57:38.699Z,52.00
2023-08-29T09:00:09.047Z,52.40
2023-08-29T09:02:42.260Z,52.40
2023-08-29T09:05:11.079Z,52.30
2023-08-29T09:07:41.123Z,52.40
2023-08-29T09:10:14.399Z,52.40
2023-08-29T09:12:52.055Z,52.30
2023-08-29T09:15:21.250Z,52.20
2023-08-29T09:17:54.658Z,52.20
2023-08-29T09:20:29.475Z,52.30
2023-08-29T09:22:58.010Z,52.40
2023-08-29T09:25:27.852Z,52.10
2023-08-29T09:27:56.152Z,52.00
2023-08-29T09:30:24.928Z,51.90
2023-08-29T09:32:56.427Z,51.80
2023-08-29T09:35:26.285Z,51.80
2023-08-29T09:37:56.571Z,51.70
2023-08-29T09:43:06.043Z,51.50
2023-08-29T09:45:34.957Z,51.40
2023-08-29T09:48:04.599Z,51.30
2023-08-29T09:50:34.854Z,51.30
2023-08-29T09:53:04.145Z,51.40
2023-08-29T09:55:40.994Z,51.50
2023-08-29T09:58:11.368Z,51.30
2023-08-29T10:00:42.604Z,51.20
2023-08-29T10:03:12.710Z,51.20
2023-08-29T10:05:44.857Z,51.00
2023-08-29T10:08:12.813Z,50.90
2023-08-29T10:10:45.083Z,50.80
2023-08-29T10:13:13.985Z,50.80
2023-08-29T10:15:45.615Z,50.70
2023-08-29T10:18:14.752Z,50.70
2023-08-29T10:20:47.234Z,50.70
2023-08-29T10:23:17.430Z,50.50
2023-08-29T10:25:46.762Z,50.50
2023-08-29T10:28:17.413Z,50.50
2023-08-29T10:30:49.569Z,50.50
2023-08-29T10:33:19.181Z,50.60
2023-08-29T10:35:50.390Z,50.80
2023-08-29T10:38:19.296Z,50.50
2023-08-29T10:40:47.751Z,50.60
2023-08-29T10:43:21.074Z,50.60
2023-08-29T10:45:50.602Z,50.70
2023-08-29T10:48:20.601Z,50.50
2023-08-29T10:51:10.266Z,50.40
2023-08-29T10:54:07.582Z,50.60
2023-08-29T10:56:46.639Z,50.60
2023-08-29T10:59:37.797Z,50.20
2023-08-29T11:02:27.121Z,50.20
2023-08-29T11:05:13.303Z,50.20
2023-08-29T11:07:41.584Z,50.20
2023-08-29T11:10:18.954Z,50.20
2023-08-29T11:13:09.360Z,50.20
2023-08-29T11:15:59.578Z,50.40
2023-08-29T11:18:32.520Z,50.20
2023-08-29T11:21:08.104Z,50.20
2023-08-29T11:23:42.499Z,50.10
2023-08-29T11:26:11.589Z,50.00
2023-08-29T11:28:42.921Z,50.00
2023-08-29T11:31:11.080Z,50.00
2023-08-29T11:33:39.752Z,50.10
2023-08-29T11:36:08.874Z,50.10
2023-08-29T11:38:38.937Z,50.00
2023-08-29T11:41:16.237Z,50.00
2023-08-29T11:44:28.181Z,50.10
2023-08-29T11:46:45.839Z,50.00
2023-08-29T11:49:15.322Z,50.00
2023-08-29T11:51:44.570Z,50.00
2023-08-29T11:54:40.113Z,50.50
2023-08-29T11:57:09.181Z,50.60
2023-08-29T11:59:43.620Z,50.90
2023-08-29T12:02:20.261Z,50.80
2023-08-29T12:04:53.762Z,50.70
2023-08-29T12:07:22.057Z,50.70
2023-08-29T12:09:53.177Z,50.60
2023-08-29T12:12:37.150Z,50.70
2023-08-29T12:15:12.762Z,50.70
2023-08-29T12:17:43.299Z,51.30
2023-08-29T12:20:14.091Z,51.00
2023-08-29T12:22:48.160Z,50.80
2023-08-29T12:25:16.780Z,50.90
2023-08-29T12:27:47.817Z,50.90
2023-08-29T12:30:16.307Z,51.20
2023-08-29T12:32:46.238Z,51.20
2023-08-29T12:35:17.046Z,50.90
2023-08-29T12:37:45.207Z,50.90
2023-08-29T12:40:14.214Z,51.20
2023-08-29T12:42:45.165Z,50.90
2023-08-29T12:45:13.249Z,50.30
2023-08-29T12:47:41.309Z,50.30
2023-08-29T12:50:09.869Z,50.20
2023-08-29T12:52:39.416Z,50.10
2023-08-29T12:55:07.912Z,50.10
2023-08-29T12:57:36.211Z,50.10
2023-08-29T13:00:08.368Z,50.00
2023-08-29T13:02:36.796Z,50.10
2023-08-29T13:05:05.048Z,50.00
2023-08-29T13:07:33.011Z,49.90
2023-08-29T13:10:00.940Z,49.80
2023-08-29T13:12:29.219Z,49.80
2023-08-29T13:14:57.346Z,49.80
2023-08-29T13:17:25.423Z,49.90
2023-08-29T13:19:53.627Z,50.00
2023-08-29T13:22:23.391Z,49.90
2023-08-29T13:24:52.955Z,49.80
2023-08-29T13:27:20.959Z,49.90
2023-08-29T13:29:48.888Z,49.90
2023-08-29T13:32:17.006Z,49.80
2023-08-29T13:34:45.042Z,49.80
2023-08-29T13:37:13.126Z,50.10
2023-08-29T13:39:45.424Z,49.80
2023-08-29T13:42:13.508Z,49.70
2023-08-29T13:44:42.036Z,49.70
2023-08-29T13:47:10.620Z,49.70
2023-08-29T13:49:38.958Z,49.70
2023-08-29T13:52:09.573Z,49.70
2023-08-29T13:54:37.940Z,49.70
2023-08-29T13:57:06.551Z,49.80
2023-08-29T13:59:34.870Z,49.70
2023-08-29T14:02:03.315Z,49.60
2023-08-29T14:04:31.597Z,49.60
2023-08-29T14:06:59.832Z,49.70
2023-08-29T14:09:28.012Z,49.80
2023-08-29T14:11:56.480Z,49.80
2023-08-29T14:14:27.463Z,49.90
2023-08-29T14:16:55.687Z,49.90
2023-08-29T14:19:23.879Z,49.90
2023-08-29T14:21:51.898Z,49.90
2023-08-29T14:24:19.888Z,49.90
2023-08-29T14:26:48.331Z,49.80
2023-08-29T14:29:16.323Z,49.70
2023-08-29T14:31:46.645Z,49.80
2023-08-29T14:34:14.727Z,49.70
2023-08-29T14:36:42.716Z,49.80
2023-08-29T14:39:10.911Z,49.60
2023-08-29T14:41:39.065Z,49.50
2023-08-29T14:44:06.984Z,49.70
2023-08-29T14:46:35.059Z,49.70
2023-08-29T14:49:04.292Z,49.70
2023-08-29T14:51:32.709Z,49.70
2023-08-29T14:54:04.610Z,49.70
2023-08-29T14:56:32.650Z,49.70
2023-08-29T14:59:01.038Z,49.70
2023-08-29T15:01:29.144Z,49.70
2023-08-29T15:03:57.628Z,49.70
2023-08-29T15:06:27.050Z,49.70
2023-08-29T15:08:55.060Z,49.70
2023-08-29T15:11:23.254Z,49.80
2023-08-29T15:13:51.376Z,49.80
2023-08-29T15:16:19.960Z,49.80
2023-08-29T15:18:48.408Z,49.80
2023-08-29T15:21:18.682Z,49.80
2023-08-29T15:23:48.162Z,49.80
2023-08-29T15:26:16.387Z,49.80
2023-08-29T15:28:44.797Z,49.90
2023-08-29T15:31:12.796Z,49.90
2023-08-29T15:33:41.007Z,49.90
2023-08-29T15:36:08.998Z,49.80
2023-08-29T15:38:37.327Z,49.70
2023-08-29T15:41:06.031Z,49.50
2023-08-29T15:43:34.029Z,49.50
2023-08-29T15:46:02.194Z,50.30
2023-08-29T15:48:30.329Z,50.20
2023-08-29T15:50:58.395Z,50.30
2023-08-29T15:53:26.497Z,50.30
2023-08-29T15:56:02.704Z,50.50
2023-08-29T15:58:30.815Z,50.50
2023-08-29T16:01:02.513Z,50.50
2023-08-29T16:03:30.494Z,50.50
2023-08-29T16:05:58.670Z,50.50
2023-08-29T16:08:26.673Z,50.60
2023-08-29T16:10:54.760Z,50.60
2023-08-29T16:13:22.881Z,50.60
2023-08-29T16:15:56.437Z,50.60
2023-08-29T16:18:24.517Z,50.70
2023-08-29T16:20:56.833Z,50.70
2023-08-29T16:23:24.756Z,50.70
2023-08-29T16:25:52.915Z,50.80
2023-08-29T16:28:24.530Z,50.80
2023-08-29T16:30:53.213Z,50.90
2023-08-29T16:33:21.277Z,50.90
2023-08-29T16:35:49.467Z,50.90
2023-08-29T16:38:17.700Z,50.90
2023-08-29T16:40:45.860Z,51.00
2023-08-29T16:43:14.101Z,51.00
2023-08-29T16:45:42.429Z,51.10
2023-08-29T16:48:11.002Z,51.10
2023-08-29T16:50:40.129Z,51.10
2023-08-29T16:53:08.853Z,51.10
2023-08-29T16:55:36.941Z,51.20
2023-08-29T16:58:05.771Z,51.20
2023-08-29T17:00:34.890Z,51.30
2023-08-29T17:03:11.117Z,51.30
2023-08-29T17:05:40.068Z,51.30
2023-08-29T17:08:08.933Z,51.30
2023-08-29T17:10:38.109Z,51.40
2023-08-29T17:13:06.288Z,51.40
2023-08-29T17:15:34.302Z,51.40
2023-08-29T17:18:02.594Z,51.40
2023-08-29T17:20:30.640Z,51.40
2023-08-29T17:22:58.675Z,51.50
2023-08-29T17:25:26.706Z,51.50
2023-08-29T17:27:54.656Z,51.50
2023-08-29T17:30:22.696Z,51.50
2023-08-29T17:32:50.963Z,51.60
2023-08-29T17:35:19.155Z,51.60
2023-08-29T17:37:47.141Z,51.60
2023-08-29T17:40:15.447Z,51.70
2023-08-29T17:42:44.638Z,51.70
2023-08-29T17:45:12.663Z,51.70
2023-08-29T17:47:41.972Z,51.70
2023-08-29T17:50:10.574Z,51.70
2023-08-29T17:52:38.801Z,51.70
2023-08-29T17:55:08.075Z,51.80
2023-08-29T17:57:36.178Z,51.70
2023-08-29T18:00:06.281Z,51.90
2023-08-29T18:02:34.553Z,51.80
2023-08-29T18:05:03.044Z,51.80
2023-08-29T18:07:34.003Z,51.80
2023-08-29T18:10:09.695Z,51.80
2023-08-29T18:12:39.242Z,51.90
2023-08-29T18:15:08.651Z,51.90
2023-08-29T18:17:36.812Z,51.90
2023-08-29T18:20:05.426Z,51.90
2023-08-29T18:22:35.223Z,52.00
2023-08-29T18:25:03.916Z,52.00
2023-08-29T18:27:31.891Z,52.10
2023-08-29T18:29:59.993Z,52.00
2023-08-29T18:32:28.261Z,52.00
2023-08-29T18:34:56.401Z,52.20
2023-08-29T18:37:24.329Z,52.10
2023-08-29T18:39:52.445Z,52.10
2023-08-29T18:42:20.329Z,52.10
2023-08-29T18:44:48.426Z,52.20
2023-08-29T18:47:16.681Z,52.10
2023-08-29T18:49:44.848Z,52.20
2023-08-29T18:52:13.585Z,52.20
2023-08-29T18:54:41.684Z,52.20
2023-08-29T18:57:10.077Z,52.30
2023-08-29T18:59:37.992Z,52.30
2023-08-29T19:02:05.934Z,52.30
2023-08-29T19:04:36.649Z,52.30
2023-08-29T19:07:04.976Z,52.40
2023-08-29T19:09:33.073Z,52.30
2023-08-29T19:12:01.146Z,52.30
2023-08-29T19:14:29.393Z,52.40
2023-08-29T19:16:57.633Z,52.30
2023-08-29T19:19:25.688Z,52.40
2023-08-29T19:21:55.008Z,52.30
2023-08-29T19:24:23.283Z,52.40
2023-08-29T19:26:51.266Z,52.50
2023-08-29T19:29:20.847Z,52.40
2023-08-29T19:31:49.358Z,52.40
2023-08-29T19:34:17.373Z,52.40
2023-08-29T19:36:45.506Z,52.40
2023-08-29T19:39:17.695Z,52.50
2023-08-29T19:41:46.140Z,52.50
2023-08-29T19:44:17.361Z,52.50
2023-08-29T19:46:46.555Z,52.50
2023-08-29T19:49:15.049Z,52.50
2023-08-29T19:51:43.951Z,52.50
2023-08-29T19:54:12.122Z,52.60
2023-08-29T19:56:40.187Z,52.60
2023-08-29T19:59:08.388Z,52.60
2023-08-29T20:01:36.455Z,52.60
2023-08-29T20:04:04.859Z,52.60
2023-08-29T20:06:32.941Z,52.60
2023-08-29T20:09:00.872Z,52.60
2023-08-29T20:11:28.986Z,52.60
2023-08-29T20:13:56.909Z,52.70
2023-08-29T20:16:24.892Z,52.70
2023-08-29T20:18:55.125Z,52.80
2023-08-29T20:21:23.413Z,52.70
2023-08-29T20:24:00.071Z,52.70
2023-08-29T20:26:31.660Z,52.70
2023-08-29T20:29:02.928Z,52.70
2023-08-29T20:31:31.115Z,52.90
2023-08-29T20:33:59.118Z,52.80
2023-08-29T20:36:27.322Z,52.80
2023-08-29T20:38:55.547Z,52.80
2023-08-29T20:41:23.703Z,52.90
2023-08-29T20:43:51.738Z,52.90
2023-08-29T20:46:20.632Z,52.90
2023-08-29T20:48:52.864Z,52.90
2023-08-29T20:51:20.904Z,53.00
2023-08-29T20:53:48.989Z,52.90
2023-08-29T20:56:17.197Z,52.90
2023-08-29T20:58:45.221Z,53.00
2023-08-29T21:01:13.504Z,53.00
2023-08-29T21:03:42.946Z,53.00
2023-08-29T21:06:11.193Z,53.00
2023-08-29T21:08:39.145Z,53.00
2023-08-29T21:11:07.217Z,53.00
2023-08-29T21:13:35.814Z,53.10
2023-08-29T21:16:04.111Z,53.00
2023-08-29T21:18:32.244Z,53.10
2023-08-29T21:21:02.461Z,53.10
2023-08-29T21:23:30.602Z,53.10
2023-08-29T21:25:58.741Z,53.10
2023-08-29T21:28:28.007Z,53.10
2023-08-29T21:30:56.813Z,53.10
2023-08-29T21:33:25.031Z,53.10
2023-08-29T21:35:53.145Z,53.10
2023-08-29T21:38:22.296Z,53.10
2023-08-29T21:40:50.477Z,53.20
2023-08-29T21:43:23.427Z,53.20
2023-08-29T21:46:02.172Z,53.30
2023-08-29T21:48:30.832Z,53.20
2023-08-29T21:50:59.722Z,53.20
2023-08-29T21:53:28.315Z,53.30
2023-08-29T21:55:56.642Z,53.30
2023-08-29T21:58:25.075Z,53.20
2023-08-29T22:00:54.715Z,53.30
2023-08-29T22:03:24.157Z,53.30
2023-08-29T22:05:53.504Z,53.30
2023-08-29T22:08:22.478Z,53.40
2023-08-29T22:10:52.264Z,53.30
2023-08-29T22:13:20.415Z,53.30
2023-08-29T22:15:50.783Z,53.30
2023-08-29T22:18:19.008Z,53.30
2023-08-29T22:20:47.067Z,53.30
2023-08-29T22:23:15.266Z,53.30
2023-08-29T22:25:43.355Z,53.30
2023-08-29T22:28:11.492Z,53.30
2023-08-29T22:30:40.121Z,53.30
2023-08-29T22:33:09.506Z,53.40
2023-08-29T22:35:37.891Z,53.40
2023-08-29T22:38:05.960Z,53.40
2023-08-29T22:40:34.053Z,53.40
2023-08-29T22:43:04.343Z,53.40
2023-08-29T22:45:32.454Z,53.40
2023-08-29T22:48:00.580Z,53.40
2023-08-29T22:50:28.848Z,53.50
2023-08-29T22:52:56.903Z,53.50
2023-08-29T22:55:27.233Z,53.50
2023-08-29T22:57:55.284Z,53.50
2023-08-29T23:00:23.448Z,53.50
2023-08-29T23:02:51.574Z,53.50
2023-08-29T23:05:19.616Z,53.60
2023-08-29T23:07:47.722Z,53.60
2023-08-29T23:10:16.110Z,53.60
2023-08-29T23:12:44.465Z,53.60
2023-08-29T23:15:12.544Z,53.60
2023-08-29T23:17:40.683Z,53.60
2023-08-29T23:20:09.365Z,53.70
2023-08-29T23:22:37.652Z,53.60
2023-08-29T23:25:06.415Z,53.60
2023-08-29T23:27:36.130Z,53.70
2023-08-29T23:30:10.781Z,53.70
2023-08-29T23:32:41.127Z,53.70
2023-08-29T23:35:09.591Z,53.70
2023-08-29T23:37:37.687Z,53.70
2023-08-29T23:40:08.502Z,53.80
2023-08-29T23:42:37.560Z,53.70
2023-08-29T23:45:07.131Z,53.80
2023-08-29T23:47:36.123Z,53.80
2023-08-29T23:50:05.247Z,53.80
2023-08-29T23:52:33.486Z,53.80
2023-08-29T23:55:02.220Z,53.80
2023-08-29T23:57:30.047Z,53.90
2023-08-29T23:59:58.198Z,53.80
